Main page
METAR-TAF:

METAR-TAF

Airports :

Presidente Prudente Airport

Presidente Prudente, São Paulo, Brazil

latitude: 22-07S, longitude: 051-23W, elevation: 436 m

Current weather observation

The report was made 45 minutes ago, at 17:00 UTC
Wind 5 kt from the West, varying between South/Southwest and North/Northwest
Temperature 30°C
Humidity 40%
Pressure 1011 hPa
Visibility 10 km or more
Scattered clouds at a height of 4500 ft

METAR: SBDN 251700Z 26005KT 210V340 9999 SCT045 30/15 Q1011

Time: 14:45 (17:45 UTC)

Forecast

The report was made 8 hours and 15 minutes ago, at 09:30 UTC
Forecast valid from 25 at 12 UTC to 25 at 24 UTC
Wind 4 kt from the East
Visibility 10 km or more
no clouds below 1500 m and no cumulonimbus
Becoming
from 25 at 14 UTC to 25 at 16 UTC
Wind 5 kt from the West/Southwest
Becoming
from 25 at 22 UTC to 25 at 24 UTC
Wind kt from the North

TAF: SBDN 250930Z 2512/2524 10004KT CAVOK TN24/2512Z TX31/2518Z BECMG 2514/2516 24005KT BECMG 2522/2524 00000KT RMK PER

Weather observations and forecasts of more than 4000 airports (METAR and TAF reports).

The available stations are represented by yellow and red dots on the map.

Hover mouse over dot to see the name of the station.

Then click to see weather observations and forecasts.

To change the map : click on the green buttons with a black cross to zoom in, on the green button with a dash to zoom out, or on the green arrows for adjacent maps.


METAR-TAF: